Turret, Colorado
Current Conditions -  °F | °C
As of 8:55 PM on Saturday 25 Oct 2014 (Local Time) from KANK Reporting Station
Clear Clear  
Wind Chill: 59°   Ceiling: Unl
Heat Index: 59°   Visibility: 10mi
Dew Point: 20°   Wind: 10mph
Humidity: 23%   Direction: 250°WSW
Pressure: 30.29"   Gusts: NA
Location:  38.5561°N, 106.066°W
Report Text: KANK 260255Z AUTO 25009KT 10SM CLR 15/M06 A3029 RMK AO1 T01491064
Loading
Personal Weather Stations






























Interactive Weather Map
Tropical Storm Tracking
New forecast layout! Learn more

10-Day Weather Forecast

Advertisements
Track Severe Weather on mobile